createdAt,value
2023-02-27T00:00:57.635Z,-7.24
2023-02-27T00:03:26.349Z,-7.21
2023-02-27T00:05:56.454Z,-7.22
2023-02-27T00:08:25.340Z,-7.25
2023-02-27T00:10:55.383Z,-7.24
2023-02-27T00:13:23.828Z,-7.25
2023-02-27T00:15:52.355Z,-7.39
2023-02-27T00:18:20.989Z,-7.37
2023-02-27T00:20:49.913Z,-7.45
2023-02-27T00:23:18.497Z,-7.45
2023-02-27T00:25:46.970Z,-7.48
2023-02-27T00:28:16.956Z,-7.55
2023-02-27T00:30:45.495Z,-7.60
2023-02-27T00:33:14.124Z,-7.61
2023-02-27T00:35:43.124Z,-7.62
2023-02-27T00:38:11.707Z,-7.48
2023-02-27T00:40:40.363Z,-7.77
2023-02-27T00:43:08.891Z,-7.77
2023-02-27T00:45:38.815Z,-7.67
2023-02-27T00:48:07.373Z,-7.65
2023-02-27T00:50:36.738Z,-7.70
2023-02-27T00:53:05.340Z,-7.63
2023-02-27T00:55:33.883Z,-7.63
2023-02-27T00:58:02.633Z,-7.64
2023-02-27T01:00:31.533Z,-7.64
2023-02-27T01:03:02.989Z,-7.76
2023-02-27T01:05:32.780Z,-7.69
2023-02-27T01:08:01.428Z,-7.66
2023-02-27T01:10:31.024Z,-7.89
2023-02-27T01:13:00.339Z,-7.71
2023-02-27T01:15:28.889Z,-7.74
2023-02-27T01:17:57.343Z,-7.79
2023-02-27T01:20:27.314Z,-7.77
2023-02-27T01:22:55.813Z,-7.81
2023-02-27T01:25:24.238Z,-7.77
2023-02-27T01:27:52.692Z,-7.78
2023-02-27T01:30:21.304Z,-7.78
2023-02-27T01:32:49.848Z,-7.79
2023-02-27T01:35:18.794Z,-7.75
2023-02-27T01:37:48.689Z,-7.71
2023-02-27T01:40:17.408Z,-7.75
2023-02-27T01:42:46.834Z,-7.80
2023-02-27T01:45:34.115Z,-7.79
2023-02-27T01:48:07.807Z,-7.86
2023-02-27T01:50:39.266Z,-7.93
2023-02-27T01:53:09.416Z,-8.00
2023-02-27T01:55:40.194Z,-7.98
2023-02-27T01:58:12.300Z,-7.97
2023-02-27T02:00:41.375Z,-8.01
2023-02-27T02:03:18.512Z,-8.01
2023-02-27T02:05:48.487Z,-8.04
2023-02-27T02:08:21.076Z,-8.16
2023-02-27T02:10:52.289Z,-8.12
2023-02-27T02:13:22.939Z,-8.19
2023-02-27T02:16:04.939Z,-8.20
2023-02-27T02:18:44.736Z,-8.18
2023-02-27T02:22:01.336Z,-8.34
2023-02-27T02:25:02.491Z,-8.51
2023-02-27T02:27:44.985Z,-8.56
2023-02-27T02:30:49.614Z,-8.52
2023-02-27T02:33:58.061Z,-8.49
2023-02-27T02:37:06.654Z,-8.47
2023-02-27T02:39:58.888Z,-8.50
2023-02-27T02:42:33.182Z,-8.44
2023-02-27T02:45:15.004Z,-8.53
2023-02-27T02:47:57.302Z,-8.69
2023-02-27T02:50:30.979Z,-8.71
2023-02-27T02:53:09.520Z,-8.64
2023-02-27T02:55:46.010Z,-8.62
2023-02-27T02:58:23.282Z,-8.56
2023-02-27T03:00:57.179Z,-8.57
2023-02-27T03:03:30.417Z,-8.50
2023-02-27T03:06:02.412Z,-8.56
2023-02-27T03:08:35.733Z,-8.59
2023-02-27T03:11:07.232Z,-8.58
2023-02-27T03:13:41.556Z,-8.53
2023-02-27T03:16:16.407Z,-8.56
2023-02-27T03:18:51.209Z,-8.57
2023-02-27T03:21:26.055Z,-8.62
2023-02-27T03:23:59.577Z,-8.93
2023-02-27T03:26:35.118Z,-8.78
2023-02-27T03:29:08.837Z,-8.71
2023-02-27T03:31:43.140Z,-8.68
2023-02-27T03:34:19.377Z,-8.70
2023-02-27T03:36:55.306Z,-8.94
2023-02-27T03:39:34.093Z,-9.03
2023-02-27T03:42:15.938Z,-9.05
2023-02-27T03:45:15.689Z,-8.90
2023-02-27T03:47:44.614Z,-9.09
2023-02-27T03:50:14.107Z,-8.96
2023-02-27T03:52:43.700Z,-9.08
2023-02-27T03:55:16.861Z,-8.98
2023-02-27T03:57:49.788Z,-8.96
2023-02-27T04:00:24.095Z,-8.97
2023-02-27T04:03:07.473Z,-9.00
2023-02-27T04:05:39.881Z,-9.22
2023-02-27T04:08:30.000Z,-9.12
2023-02-27T04:11:22.846Z,-9.20
2023-02-27T04:14:38.137Z,-9.16
2023-02-27T04:17:25.517Z,-9.19
2023-02-27T04:20:15.077Z,-9.12
2023-02-27T04:22:51.147Z,-9.04
2023-02-27T04:25:50.512Z,-8.97
2023-02-27T04:28:36.209Z,-9.19
2023-02-27T04:31:19.583Z,-9.01
2023-02-27T04:33:56.632Z,-9.00
2023-02-27T04:36:34.362Z,-8.92
2023-02-27T04:39:22.166Z,-8.92
2023-02-27T04:42:24.266Z,-9.02
2023-02-27T04:45:02.633Z,-8.98
2023-02-27T04:47:46.912Z,-9.03
2023-02-27T04:50:23.552Z,-8.95
2023-02-27T04:53:00.006Z,-9.04
2023-02-27T04:55:33.441Z,-9.07
2023-02-27T04:58:14.129Z,-9.17
2023-02-27T05:00:49.756Z,-9.12
2023-02-27T05:03:31.227Z,-9.02
2023-02-27T05:06:02.842Z,-9.13
2023-02-27T05:08:43.018Z,-9.00
2023-02-27T05:11:22.662Z,-9.11
2023-02-27T05:13:58.740Z,-9.05
2023-02-27T05:16:36.060Z,-9.11
2023-02-27T05:19:09.881Z,-9.16
2023-02-27T05:21:48.180Z,-9.07
2023-02-27T05:24:31.086Z,-9.07
2023-02-27T05:27:20.881Z,-9.01
2023-02-27T05:29:53.849Z,-8.93
2023-02-27T05:32:41.181Z,-9.01
2023-02-27T05:35:47.573Z,-9.05
2023-02-27T05:38:23.713Z,-9.08
2023-02-27T05:41:01.450Z,-9.15
2023-02-27T05:43:38.572Z,-9.06
2023-02-27T05:46:13.124Z,-9.16
2023-02-27T05:48:51.585Z,-9.09
2023-02-27T05:51:26.981Z,-9.10
2023-02-27T05:54:08.039Z,-9.02
2023-02-27T05:57:05.784Z,-9.03
2023-02-27T05:59:46.058Z,-9.04
2023-02-27T06:02:15.489Z,-8.95
2023-02-27T06:04:44.456Z,-9.01
2023-02-27T06:07:21.316Z,-9.00
2023-02-27T06:09:51.637Z,-8.84
2023-02-27T06:12:30.037Z,-8.89
2023-02-27T06:15:02.010Z,-8.85
2023-02-27T06:17:33.986Z,-8.77
2023-02-27T06:20:07.073Z,-8.67
2023-02-27T06:22:40.017Z,-8.75
2023-02-27T06:25:12.611Z,-8.57
2023-02-27T06:27:44.629Z,-8.85
2023-02-27T06:30:17.744Z,-8.62
2023-02-27T06:32:49.742Z,-8.62
2023-02-27T06:35:21.258Z,-8.54
2023-02-27T06:37:54.764Z,-8.71
2023-02-27T06:40:25.477Z,-8.88
2023-02-27T06:42:57.173Z,-8.76
2023-02-27T06:45:28.469Z,-8.79
2023-02-27T06:48:00.172Z,-8.81
2023-02-27T06:50:29.875Z,-8.83
2023-02-27T06:53:10.424Z,-8.74
2023-02-27T06:55:42.308Z,-8.78
2023-02-27T06:58:25.448Z,-8.48
2023-02-27T07:00:56.446Z,-8.10
2023-02-27T07:03:33.502Z,-8.43
2023-02-27T07:06:11.465Z,-8.71
2023-02-27T07:08:53.996Z,-8.41
2023-02-27T07:12:08.369Z,-8.59
2023-02-27T07:14:41.170Z,-8.41
2023-02-27T07:17:13.993Z,-8.40
2023-02-27T07:19:46.173Z,-8.38
2023-02-27T07:22:15.216Z,-8.36
2023-02-27T07:24:50.770Z,-8.24
2023-02-27T07:27:20.409Z,-8.11
2023-02-27T07:29:55.958Z,-8.14
2023-02-27T07:32:28.097Z,-8.07
2023-02-27T07:34:59.812Z,-7.95
2023-02-27T07:37:28.808Z,-7.51
2023-02-27T07:40:02.004Z,-7.24
2023-02-27T07:42:33.563Z,-7.32
2023-02-27T07:45:03.449Z,-7.42
2023-02-27T07:47:32.357Z,-6.94
2023-02-27T07:50:07.617Z,-7.06
2023-02-27T07:52:36.580Z,-7.68
2023-02-27T07:55:10.142Z,-7.60
2023-02-27T07:57:45.912Z,-7.69
2023-02-27T08:00:16.075Z,-7.67
2023-02-27T08:02:45.226Z,-7.59
2023-02-27T08:05:20.002Z,-7.49
2023-02-27T08:07:49.230Z,-7.26
2023-02-27T08:10:19.912Z,-7.19
2023-02-27T08:12:48.904Z,-6.83
2023-02-27T08:15:18.052Z,-6.98
2023-02-27T08:17:47.644Z,-7.11
2023-02-27T08:20:17.611Z,-7.45
2023-02-27T08:22:46.653Z,-7.34
2023-02-27T08:25:15.602Z,-7.43
2023-02-27T08:27:48.489Z,-7.41
2023-02-27T08:30:18.409Z,-7.63
2023-02-27T08:32:47.406Z,-7.52
2023-02-27T08:35:16.541Z,-7.52
2023-02-27T08:37:45.423Z,-7.57
2023-02-27T08:40:14.714Z,-7.64
2023-02-27T08:42:47.801Z,-7.60
2023-02-27T08:45:19.628Z,-7.55
2023-02-27T08:47:54.337Z,-7.52
2023-02-27T08:50:28.794Z,-7.63
2023-02-27T08:52:57.918Z,-7.70
2023-02-27T08:55:26.841Z,-7.79
2023-02-27T08:57:59.997Z,-7.86
2023-02-27T09:00:32.680Z,-7.70
2023-02-27T09:03:01.829Z,-7.67
2023-02-27T09:05:36.058Z,-7.52
2023-02-27T09:08:08.657Z,-7.44
2023-02-27T09:10:39.078Z,-7.37
2023-02-27T09:13:14.957Z,-7.37
2023-02-27T09:15:43.834Z,-7.42
2023-02-27T09:18:15.722Z,-7.46
2023-02-27T09:20:44.807Z,-7.59
2023-02-27T09:23:13.924Z,-7.64
2023-02-27T09:25:45.725Z,-7.64
2023-02-27T09:28:16.123Z,-7.63
2023-02-27T09:30:45.380Z,-7.67
2023-02-27T09:33:16.248Z,-7.67
2023-02-27T09:35:45.335Z,-7.81
2023-02-27T09:38:19.741Z,-7.78
2023-02-27T09:40:55.305Z,-7.78
2023-02-27T09:43:31.444Z,-7.75
2023-02-27T09:46:02.642Z,-7.79
2023-02-27T09:48:34.679Z,-7.83
2023-02-27T09:51:07.032Z,-7.89
2023-02-27T09:53:43.460Z,-7.90
2023-02-27T09:56:25.126Z,-7.88
2023-02-27T09:59:17.801Z,-7.85
2023-02-27T10:01:51.722Z,-7.90
2023-02-27T10:04:41.365Z,-7.86
2023-02-27T10:07:22.344Z,-7.83
2023-02-27T10:10:06.025Z,-7.86
2023-02-27T10:12:51.569Z,-7.85
2023-02-27T10:15:36.143Z,-7.83
2023-02-27T10:18:26.856Z,-7.67
2023-02-27T10:21:09.112Z,-7.66
2023-02-27T10:23:44.305Z,-7.67
2023-02-27T10:26:30.648Z,-7.65
2023-02-27T10:29:07.011Z,-7.64
2023-02-27T10:31:40.774Z,-7.72
2023-02-27T10:34:16.519Z,-7.96
2023-02-27T10:36:47.428Z,-7.81
2023-02-27T10:39:21.132Z,-7.83
2023-02-27T10:41:53.737Z,-7.74
2023-02-27T10:44:24.771Z,-7.69
2023-02-27T10:46:57.118Z,-7.65
2023-02-27T10:49:34.432Z,-7.53
2023-02-27T10:52:15.378Z,-7.54
2023-02-27T10:54:47.417Z,-7.58
2023-02-27T10:57:33.832Z,-7.56
2023-02-27T11:00:06.904Z,-7.49
2023-02-27T11:02:40.628Z,-7.48
2023-02-27T11:05:31.716Z,-7.45
2023-02-27T11:08:15.762Z,-7.47
2023-02-27T11:11:05.659Z,-7.46
2023-02-27T11:13:36.980Z,-7.46
2023-02-27T11:16:14.782Z,-7.46
2023-02-27T11:18:49.614Z,-7.44
2023-02-27T11:21:24.884Z,-7.44
2023-02-27T11:24:00.863Z,-7.44
2023-02-27T11:26:34.834Z,-7.38
2023-02-27T11:29:16.064Z,-7.34
2023-02-27T11:31:53.708Z,-7.33
2023-02-27T11:34:33.699Z,-7.30
2023-02-27T11:37:05.827Z,-7.29
2023-02-27T11:39:38.789Z,-7.31
2023-02-27T11:42:17.268Z,-7.30
2023-02-27T11:44:57.743Z,-7.27
2023-02-27T11:47:33.804Z,-7.24
2023-02-27T11:50:28.514Z,-7.25
2023-02-27T11:53:08.362Z,-7.16
2023-02-27T11:55:38.980Z,-7.11
2023-02-27T11:58:16.750Z,-7.14
2023-02-27T12:00:51.086Z,-7.15
2023-02-27T12:03:29.445Z,-7.08
2023-02-27T12:06:05.168Z,-7.09
2023-02-27T12:08:42.679Z,-7.05
2023-02-27T12:11:22.443Z,-7.05
2023-02-27T12:14:03.999Z,-7.03
2023-02-27T12:16:38.001Z,-7.11
2023-02-27T12:19:16.536Z,-7.10
2023-02-27T12:21:51.970Z,-7.00
2023-02-27T12:24:25.290Z,-6.96
2023-02-27T12:27:02.231Z,-6.92
2023-02-27T12:29:43.252Z,-6.95
2023-02-27T12:32:25.039Z,-6.96
2023-02-27T12:34:57.242Z,-6.97
2023-02-27T12:37:30.306Z,-6.89
2023-02-27T12:40:08.102Z,-6.85
2023-02-27T12:42:54.461Z,-6.81
2023-02-27T12:45:46.417Z,-6.84
2023-02-27T12:48:56.199Z,-6.80
2023-02-27T12:51:41.509Z,-6.85
2023-02-27T12:54:29.267Z,-6.92
2023-02-27T12:57:24.385Z,-7.01
2023-02-27T13:00:08.853Z,-6.98
2023-02-27T13:02:56.045Z,-6.94
2023-02-27T13:05:43.029Z,-6.97
2023-02-27T13:09:06.842Z,-6.87
2023-02-27T13:11:48.277Z,-6.81
2023-02-27T13:14:30.412Z,-6.80
2023-02-27T13:17:04.993Z,-6.89
2023-02-27T13:19:42.484Z,-7.09
2023-02-27T13:22:18.038Z,-7.04
2023-02-27T13:24:51.405Z,-6.88
2023-02-27T13:27:28.929Z,-6.81
2023-02-27T13:30:13.830Z,-6.73
2023-02-27T13:32:48.813Z,-6.61
2023-02-27T13:35:37.477Z,-6.57
2023-02-27T13:38:45.080Z,-6.56
2023-02-27T13:41:39.741Z,-6.61
2023-02-27T13:44:44.689Z,-6.62
2023-02-27T13:47:43.835Z,-6.73
2023-02-27T13:50:54.767Z,-6.88
2023-02-27T13:53:28.364Z,-6.91
2023-02-27T13:56:24.071Z,-6.80
2023-02-27T13:58:57.916Z,-6.83
2023-02-27T14:01:35.542Z,-6.86
2023-02-27T14:04:09.242Z,-6.86
2023-02-27T14:06:45.771Z,-6.93
2023-02-27T14:09:18.982Z,-6.97
2023-02-27T14:11:56.804Z,-6.94
2023-02-27T14:14:46.527Z,-6.92
2023-02-27T14:17:49.631Z,-7.03
2023-02-27T14:20:54.737Z,-7.32
2023-02-27T14:23:28.722Z,-7.48
2023-02-27T14:26:04.258Z,-7.48
2023-02-27T14:28:43.184Z,-7.42
2023-02-27T14:31:27.492Z,-7.47
2023-02-27T14:34:05.601Z,-7.45
2023-02-27T14:36:47.530Z,-7.43
2023-02-27T14:39:24.863Z,-7.41
2023-02-27T14:42:04.895Z,-7.46
2023-02-27T14:44:44.884Z,-7.27
2023-02-27T14:47:20.680Z,-7.18
2023-02-27T14:49:57.032Z,-7.18
2023-02-27T14:52:31.176Z,-7.25
2023-02-27T14:55:19.777Z,-7.35
2023-02-27T14:58:02.582Z,-7.46
2023-02-27T15:00:40.962Z,-7.40
2023-02-27T15:03:19.819Z,-7.45
2023-02-27T15:05:52.997Z,-7.64
2023-02-27T15:08:28.115Z,-7.66
2023-02-27T15:11:02.592Z,-7.83
2023-02-27T15:13:37.529Z,-7.94
2023-02-27T15:16:39.635Z,-8.06
2023-02-27T15:19:20.105Z,-8.17
2023-02-27T15:21:52.966Z,-8.10
2023-02-27T15:24:31.273Z,-8.09
2023-02-27T15:27:05.171Z,-8.14
2023-02-27T15:29:39.334Z,-8.24
2023-02-27T15:32:27.195Z,-8.40
2023-02-27T15:35:02.440Z,-8.39
2023-02-27T15:37:35.916Z,-8.46
2023-02-27T15:40:09.259Z,-8.39
2023-02-27T15:42:43.678Z,-8.58
2023-02-27T15:45:19.958Z,-8.75
2023-02-27T15:47:49.770Z,-8.41
2023-02-27T15:50:29.668Z,-8.06
2023-02-27T15:53:06.110Z,-8.02
2023-02-27T15:55:38.537Z,-8.06
2023-02-27T15:58:19.504Z,-8.12
2023-02-27T16:01:01.179Z,-8.47
2023-02-27T16:03:40.072Z,-9.55
2023-02-27T16:06:13.742Z,-9.08
2023-02-27T16:08:52.398Z,-8.79
2023-02-27T16:11:21.884Z,-9.02
2023-02-27T16:13:54.682Z,-9.15
2023-02-27T16:16:35.379Z,-9.57
2023-02-27T16:19:27.056Z,-9.01
2023-02-27T16:22:18.008Z,-9.22
2023-02-27T16:24:51.610Z,-9.06
2023-02-27T16:27:25.545Z,-9.35
2023-02-27T16:30:02.944Z,-9.14
2023-02-27T16:32:36.419Z,-9.18
2023-02-27T16:35:07.705Z,-8.96
2023-02-27T16:37:38.909Z,-9.23
2023-02-27T16:40:17.012Z,-9.43
2023-02-27T16:42:49.196Z,-9.50
2023-02-27T16:45:23.779Z,-9.26
2023-02-27T16:47:55.097Z,-9.33
2023-02-27T16:50:34.452Z,-9.24
2023-02-27T16:53:06.568Z,-9.89
2023-02-27T16:55:41.190Z,-10.03
2023-02-27T16:58:15.742Z,-9.77
2023-02-27T17:00:45.588Z,-10.30
2023-02-27T17:03:15.706Z,-10.48
2023-02-27T17:05:44.482Z,-10.22
2023-02-27T17:08:13.219Z,-10.75
2023-02-27T17:10:44.572Z,-10.54
2023-02-27T17:13:13.200Z,-10.50
2023-02-27T17:15:41.891Z,-10.54
2023-02-27T17:18:10.660Z,-10.54
2023-02-27T17:20:39.213Z,-10.57
2023-02-27T17:23:11.352Z,-10.94
2023-02-27T17:25:44.030Z,-10.49
2023-02-27T17:28:15.930Z,-10.23
2023-02-27T17:30:45.067Z,-10.05
2023-02-27T17:33:13.710Z,-10.04
2023-02-27T17:35:43.254Z,-10.26
2023-02-27T17:38:12.036Z,-10.78
2023-02-27T17:40:40.693Z,-10.95
2023-02-27T17:43:10.980Z,-11.12
2023-02-27T17:45:40.564Z,-11.04
2023-02-27T17:48:09.143Z,-10.77
2023-02-27T17:50:37.908Z,-10.44
2023-02-27T17:53:06.900Z,-10.31
2023-02-27T17:55:35.659Z,-10.41
2023-02-27T17:58:05.020Z,-10.28
2023-02-27T18:00:35.283Z,-9.92
2023-02-27T18:03:03.814Z,-9.82
2023-02-27T18:05:32.797Z,-9.94
2023-02-27T18:08:01.438Z,-9.89
2023-02-27T18:10:29.903Z,-9.80
2023-02-27T18:13:01.182Z,-9.77
2023-02-27T18:15:30.007Z,-9.76
2023-02-27T18:18:00.327Z,-9.66
2023-02-27T18:20:28.871Z,-9.69
2023-02-27T18:22:57.518Z,-9.75
2023-02-27T18:25:27.516Z,-9.67
2023-02-27T18:27:57.125Z,-9.54
2023-02-27T18:30:26.326Z,-9.34
2023-02-27T18:32:58.203Z,-9.17
2023-02-27T18:35:28.783Z,-9.17
2023-02-27T18:37:57.378Z,-9.20
2023-02-27T18:40:26.959Z,-9.15
2023-02-27T18:42:55.637Z,-9.15
2023-02-27T18:45:24.662Z,-9.03
2023-02-27T18:47:53.210Z,-8.95
2023-02-27T18:50:22.060Z,-8.96
2023-02-27T18:52:52.221Z,-9.03
2023-02-27T18:55:21.748Z,-9.05
2023-02-27T18:57:51.587Z,-9.02
2023-02-27T19:00:21.869Z,-8.95
2023-02-27T19:02:50.444Z,-8.91
2023-02-27T19:05:19.953Z,-8.85
2023-02-27T19:07:53.384Z,-8.91
2023-02-27T19:10:25.206Z,-8.99
2023-02-27T19:12:53.873Z,-9.09
2023-02-27T19:15:22.325Z,-9.06
2023-02-27T19:17:51.037Z,-8.90
2023-02-27T19:20:20.022Z,-8.86
2023-02-27T19:22:48.583Z,-8.83
2023-02-27T19:25:18.927Z,-8.80
2023-02-27T19:27:48.023Z,-8.75
2023-02-27T19:30:17.840Z,-8.79
2023-02-27T19:32:49.330Z,-8.75
2023-02-27T19:35:21.619Z,-8.33
2023-02-27T19:37:57.150Z,-8.10
2023-02-27T19:40:28.365Z,-7.83
2023-02-27T19:42:58.973Z,-7.68
2023-02-27T19:45:27.580Z,-7.49
2023-02-27T19:47:56.201Z,-7.42
2023-02-27T19:50:24.862Z,-7.33
2023-02-27T19:52:53.618Z,-7.24
2023-02-27T19:55:22.358Z,-7.18
2023-02-27T19:57:56.362Z,-7.15
2023-02-27T20:00:25.592Z,-7.04
2023-02-27T20:02:54.272Z,-6.99
2023-02-27T20:05:23.215Z,-6.94
2023-02-27T20:07:53.272Z,-6.89
2023-02-27T20:10:24.233Z,-6.86
2023-02-27T20:12:54.662Z,-6.81
2023-02-27T20:15:23.444Z,-6.76
2023-02-27T20:17:53.687Z,-6.69
2023-02-27T20:20:23.128Z,-6.63
2023-02-27T20:22:53.403Z,-6.54
2023-02-27T20:25:22.484Z,-6.46
2023-02-27T20:27:51.110Z,-6.38
2023-02-27T20:30:21.303Z,-6.35
2023-02-27T20:32:49.946Z,-6.32
2023-02-27T20:35:18.639Z,-6.23
2023-02-27T20:37:47.121Z,-6.21
2023-02-27T20:40:17.418Z,-6.17
2023-02-27T20:42:46.000Z,-6.11
2023-02-27T20:45:15.001Z,-6.04
2023-02-27T20:47:46.441Z,-5.98
2023-02-27T20:50:15.248Z,-5.94
2023-02-27T20:52:43.885Z,-5.90
2023-02-27T20:55:12.719Z,-5.86
2023-02-27T20:57:42.219Z,-5.81
2023-02-27T21:00:12.486Z,-5.77
2023-02-27T21:02:40.993Z,-5.72
2023-02-27T21:05:11.478Z,-5.69
2023-02-27T21:07:40.978Z,-5.67
2023-02-27T21:10:15.491Z,-5.61
2023-02-27T21:12:45.250Z,-5.53
2023-02-27T21:16:32.456Z,-5.48
2023-02-27T21:19:26.235Z,-5.40
2023-02-27T21:21:56.756Z,-5.33
2023-02-27T21:25:15.035Z,-5.27
2023-02-27T21:28:08.859Z,-5.20
2023-02-27T21:30:37.801Z,-5.13
2023-02-27T21:33:06.621Z,-5.08
2023-02-27T21:35:35.315Z,-5.06
2023-02-27T21:38:05.565Z,-5.03
2023-02-27T21:40:34.271Z,-5.02
2023-02-27T21:43:02.873Z,-4.92
2023-02-27T21:45:31.551Z,-4.87
2023-02-27T21:48:00.076Z,-4.83
2023-02-27T21:50:29.703Z,-4.82
2023-02-27T21:52:58.302Z,-4.81
2023-02-27T21:55:28.606Z,-4.79
2023-02-27T21:57:58.271Z,-4.80
2023-02-27T22:03:22.238Z,-4.77
2023-02-27T22:05:54.237Z,-4.78
2023-02-27T22:08:23.149Z,-4.71
2023-02-27T22:10:57.629Z,-4.65
2023-02-27T22:13:32.790Z,-4.64
2023-02-27T22:16:05.470Z,-4.58
2023-02-27T22:18:34.799Z,-4.53
2023-02-27T22:21:04.846Z,-4.47
2023-02-27T22:23:33.710Z,-4.42
2023-02-27T22:26:05.407Z,-4.38
2023-02-27T22:28:35.131Z,-4.31
2023-02-27T22:31:11.246Z,-4.29
2023-02-27T22:33:41.334Z,-4.20
2023-02-27T22:36:14.585Z,-4.16
2023-02-27T22:38:43.425Z,-4.15
2023-02-27T22:41:43.247Z,-4.08
2023-02-27T22:44:18.630Z,-4.07
2023-02-27T22:47:12.704Z,-4.06
2023-02-27T22:49:41.287Z,-4.01
2023-02-27T22:52:10.119Z,-3.98
2023-02-27T22:54:38.839Z,-3.96
2023-02-27T22:57:09.400Z,-3.92
2023-02-27T22:59:38.070Z,-3.88
2023-02-27T23:02:07.067Z,-3.87
2023-02-27T23:04:35.868Z,-3.85
2023-02-27T23:07:04.512Z,-3.84
2023-02-27T23:09:33.077Z,-3.80
2023-02-27T23:12:03.823Z,-3.77
2023-02-27T23:14:33.891Z,-3.77
2023-02-27T23:17:02.449Z,-3.78
2023-02-27T23:19:32.498Z,-3.78
2023-02-27T23:22:01.038Z,-3.79
2023-02-27T23:24:29.574Z,-3.79
2023-02-27T23:26:58.272Z,-3.78
2023-02-27T23:29:26.752Z,-3.79
2023-02-27T23:31:56.792Z,-3.76
2023-02-27T23:34:25.471Z,-3.74
2023-02-27T23:36:53.950Z,-3.72
2023-02-27T23:39:22.649Z,-3.69
2023-02-27T23:41:51.093Z,-3.67
2023-02-27T23:44:37.268Z,-3.64
2023-02-27T23:47:07.908Z,-3.58
2023-02-27T23:49:36.397Z,-3.52
2023-02-27T23:52:04.990Z,-3.49
2023-02-27T23:54:33.657Z,-3.46
2023-02-27T23:57:02.122Z,-3.36
2023-02-27T23:59:30.628Z,-3.29
